createdAt,value
2022-10-19T00:01:04.877Z,17.77
2022-10-19T00:03:32.531Z,17.53
2022-10-19T00:05:59.994Z,17.53
2022-10-19T00:08:27.385Z,18.27
2022-10-19T00:10:54.757Z,18.40
2022-10-19T00:13:22.145Z,19.07
2022-10-19T00:15:50.802Z,17.93
2022-10-19T00:18:18.186Z,18.00
2022-10-19T00:20:45.542Z,17.57
2022-10-19T00:23:12.909Z,17.83
2022-10-19T00:25:40.225Z,18.73
2022-10-19T00:28:07.633Z,19.10
2022-10-19T00:30:37.890Z,17.87
2022-10-19T00:33:06.716Z,17.07
2022-10-19T00:35:34.069Z,16.37
2022-10-19T00:38:01.394Z,16.53
2022-10-19T00:40:28.761Z,17.67
2022-10-19T00:42:56.193Z,18.20
2022-10-19T00:45:23.562Z,18.10
2022-10-19T00:47:51.443Z,18.80
2022-10-19T00:50:20.381Z,18.30
2022-10-19T00:52:47.819Z,24.10
2022-10-19T00:55:15.225Z,18.27
2022-10-19T00:57:42.699Z,17.87
2022-10-19T01:00:10.785Z,18.33
2022-10-19T01:02:38.225Z,17.20
2022-10-19T01:05:06.459Z,18.40
2022-10-19T01:07:35.400Z,18.10
2022-10-19T01:10:03.130Z,17.93
2022-10-19T01:12:47.994Z,17.87
2022-10-19T01:15:23.588Z,18.37
2022-10-19T01:17:55.885Z,16.63
2022-10-19T01:20:34.159Z,18.83
2022-10-19T01:23:19.113Z,17.17
2022-10-19T01:25:55.451Z,17.00
2022-10-19T01:28:35.869Z,16.53
2022-10-19T01:31:10.221Z,15.77
2022-10-19T01:33:43.149Z,14.93
2022-10-19T01:36:18.066Z,15.47
2022-10-19T01:38:52.260Z,15.80
2022-10-19T01:41:24.159Z,15.67
2022-10-19T01:43:57.776Z,16.00
2022-10-19T01:46:30.484Z,15.70
2022-10-19T01:49:04.185Z,16.63
2022-10-19T01:51:34.336Z,17.13
2022-10-19T01:54:04.200Z,16.97
2022-10-19T01:56:32.512Z,16.77
2022-10-19T01:59:01.933Z,16.40
2022-10-19T02:01:32.190Z,16.20
2022-10-19T02:03:59.639Z,16.23
2022-10-19T02:06:27.168Z,16.13
2022-10-19T02:08:55.281Z,17.10
2022-10-19T02:11:23.778Z,16.13
2022-10-19T02:13:53.935Z,16.30
2022-10-19T02:16:25.045Z,16.47
2022-10-19T02:18:54.999Z,16.27
2022-10-19T02:21:22.631Z,16.13
2022-10-19T02:23:51.928Z,17.03
2022-10-19T02:26:21.762Z,16.40
2022-10-19T02:28:49.480Z,16.20
2022-10-19T02:31:16.972Z,16.83
2022-10-19T02:33:44.406Z,16.47
2022-10-19T02:36:13.197Z,16.97
2022-10-19T02:38:41.581Z,16.40
2022-10-19T02:41:14.842Z,15.40
2022-10-19T02:43:43.858Z,16.23
2022-10-19T02:46:14.929Z,16.17
2022-10-19T02:48:42.857Z,16.17
2022-10-19T02:51:29.575Z,16.57
2022-10-19T02:53:59.018Z,16.90
2022-10-19T02:56:28.713Z,16.00
2022-10-19T02:58:56.400Z,16.43
2022-10-19T03:01:24.630Z,16.00
2022-10-19T03:03:52.009Z,16.33
2022-10-19T03:06:19.352Z,15.53
2022-10-19T03:08:51.760Z,16.17
2022-10-19T03:11:19.117Z,15.90
2022-10-19T03:16:19.062Z,15.60
2022-10-19T03:18:48.881Z,15.80
2022-10-19T03:21:16.238Z,15.00
2022-10-19T03:23:43.547Z,15.13
2022-10-19T03:26:16.271Z,14.67
2022-10-19T03:28:43.798Z,14.77
2022-10-19T03:31:11.381Z,14.23
2022-10-19T03:33:38.840Z,14.50
2022-10-19T03:36:17.240Z,14.53
2022-10-19T03:38:44.722Z,14.37
2022-10-19T03:41:13.497Z,13.83
2022-10-19T03:43:41.929Z,14.33
2022-10-19T03:46:09.481Z,14.43
2022-10-19T03:48:37.007Z,14.10
2022-10-19T03:51:07.703Z,13.97
2022-10-19T03:53:35.418Z,15.93
2022-10-19T03:56:04.102Z,14.73
2022-10-19T03:58:36.500Z,14.37
2022-10-19T04:01:07.735Z,14.00
2022-10-19T04:06:04.589Z,14.63
2022-10-19T04:08:32.185Z,14.43
2022-10-19T04:11:01.253Z,14.47
2022-10-19T04:13:28.655Z,16.27
2022-10-19T04:15:57.425Z,15.60
2022-10-19T04:18:24.773Z,15.70
2022-10-19T04:20:56.834Z,15.27
2022-10-19T04:23:24.809Z,16.67
2022-10-19T04:25:52.117Z,16.30
2022-10-19T04:28:19.473Z,16.50
2022-10-19T04:30:47.758Z,16.40
2022-10-19T04:33:16.458Z,16.47
2022-10-19T04:35:44.017Z,16.73
2022-10-19T04:38:11.375Z,17.20
2022-10-19T04:40:38.949Z,17.60
2022-10-19T04:43:06.520Z,17.33
2022-10-19T04:45:36.220Z,17.13
2022-10-19T04:48:03.661Z,17.50
2022-10-19T04:50:32.337Z,16.87
2022-10-19T04:52:59.677Z,17.63
2022-10-19T04:55:27.014Z,17.40
2022-10-19T04:57:54.594Z,17.73
2022-10-19T05:00:22.225Z,17.57
2022-10-19T05:02:49.561Z,17.07
2022-10-19T05:05:16.913Z,17.73
2022-10-19T05:07:45.565Z,17.40
2022-10-19T05:10:13.040Z,17.10
2022-10-19T05:12:40.378Z,16.97
2022-10-19T05:15:08.921Z,17.40
2022-10-19T05:17:36.677Z,16.80
2022-10-19T05:20:04.705Z,17.47
2022-10-19T05:22:32.039Z,16.67
2022-10-19T05:25:00.693Z,16.33
2022-10-19T05:27:28.345Z,16.23
2022-10-19T05:29:55.683Z,16.10
2022-10-19T05:32:23.073Z,17.00
2022-10-19T05:34:50.430Z,16.70
2022-10-19T05:37:17.884Z,15.93
2022-10-19T05:39:45.255Z,17.00
2022-10-19T05:42:13.916Z,16.00
2022-10-19T05:44:41.480Z,16.43
2022-10-19T05:47:08.832Z,16.57
2022-10-19T05:49:36.165Z,16.50
2022-10-19T05:52:03.612Z,16.87
2022-10-19T05:54:31.009Z,16.93
2022-10-19T05:56:58.361Z,16.53
2022-10-19T05:59:27.051Z,16.23
2022-10-19T06:01:54.528Z,16.53
2022-10-19T06:04:21.946Z,16.87
2022-10-19T06:06:49.295Z,16.90
2022-10-19T06:09:16.641Z,16.73
2022-10-19T06:11:44.263Z,16.80
2022-10-19T06:14:13.797Z,16.63
2022-10-19T06:16:42.664Z,16.60
2022-10-19T06:19:10.093Z,16.53
2022-10-19T06:21:39.607Z,17.13
2022-10-19T06:24:12.794Z,16.43
2022-10-19T06:26:40.241Z,16.90
2022-10-19T06:29:07.616Z,17.00
2022-10-19T06:31:36.650Z,17.03
2022-10-19T06:34:05.524Z,17.20
2022-10-19T06:36:33.433Z,16.50
2022-10-19T06:39:02.409Z,16.83
2022-10-19T06:41:30.261Z,16.77
2022-10-19T06:44:06.114Z,16.23
2022-10-19T06:46:33.810Z,16.33
2022-10-19T06:49:02.657Z,16.47
2022-10-19T06:51:33.883Z,16.63
2022-10-19T06:54:01.728Z,17.07
2022-10-19T06:56:29.306Z,16.00
2022-10-19T06:58:56.663Z,16.80
2022-10-19T07:01:24.668Z,17.03
2022-10-19T07:03:52.561Z,16.47
2022-10-19T07:06:20.601Z,16.90
2022-10-19T07:08:49.596Z,16.33
2022-10-19T07:11:19.508Z,16.57
2022-10-19T07:13:46.907Z,15.77
2022-10-19T07:16:19.651Z,16.33
2022-10-19T07:18:49.876Z,16.50
2022-10-19T07:21:17.770Z,16.17
2022-10-19T07:23:47.120Z,16.57
2022-10-19T07:26:17.352Z,16.07
2022-10-19T07:28:46.862Z,15.53
2022-10-19T07:31:17.733Z,15.30
2022-10-19T07:33:45.285Z,15.50
2022-10-19T07:36:14.004Z,14.80
2022-10-19T07:38:41.821Z,14.87
2022-10-19T07:41:12.642Z,15.30
2022-10-19T07:43:41.632Z,15.93
2022-10-19T07:46:11.974Z,15.73
2022-10-19T07:48:39.445Z,15.60
2022-10-19T07:51:08.450Z,14.87
2022-10-19T07:53:36.345Z,15.67
2022-10-19T07:56:04.999Z,16.03
2022-10-19T07:58:32.587Z,15.33
2022-10-19T08:01:05.149Z,15.23
2022-10-19T08:06:20.494Z,18.13
2022-10-19T08:08:48.817Z,17.80
2022-10-19T08:11:18.165Z,17.93
2022-10-19T08:13:46.412Z,17.93
2022-10-19T08:16:26.504Z,17.60
2022-10-19T08:18:57.704Z,18.17
2022-10-19T08:21:25.417Z,18.07
2022-10-19T08:23:52.835Z,17.60
2022-10-19T08:26:20.380Z,17.40
2022-10-19T08:28:47.799Z,17.00
2022-10-19T08:31:16.979Z,16.90
2022-10-19T08:33:47.711Z,16.97
2022-10-19T08:36:17.463Z,17.97
2022-10-19T08:38:44.981Z,16.73
2022-10-19T08:41:24.468Z,18.00
2022-10-19T08:44:12.599Z,17.20
2022-10-19T08:46:47.617Z,17.33
2022-10-19T08:49:21.274Z,16.87
2022-10-19T08:51:52.421Z,17.57
2022-10-19T08:54:20.201Z,17.67
2022-10-19T08:56:51.969Z,17.03
2022-10-19T08:59:27.603Z,18.43
2022-10-19T09:01:56.977Z,18.37
2022-10-19T09:04:29.686Z,18.77
2022-10-19T09:07:08.023Z,18.63
2022-10-19T09:09:37.109Z,18.30
2022-10-19T09:12:07.417Z,18.60
2022-10-19T09:14:37.291Z,18.07
2022-10-19T09:17:11.463Z,17.90
2022-10-19T09:19:40.194Z,17.50
2022-10-19T09:22:11.173Z,17.10
2022-10-19T09:24:43.615Z,17.73
2022-10-19T09:27:17.454Z,18.03
2022-10-19T09:29:47.099Z,17.73
2022-10-19T09:32:19.017Z,18.20
2022-10-19T09:34:51.083Z,18.57
2022-10-19T09:37:25.017Z,18.63
2022-10-19T09:39:55.573Z,18.27
2022-10-19T09:42:25.588Z,18.33
2022-10-19T09:44:53.409Z,18.47
2022-10-19T09:47:34.475Z,18.50
2022-10-19T09:50:16.799Z,18.40
2022-10-19T09:52:45.133Z,18.60
2022-10-19T09:55:21.633Z,18.80
2022-10-19T09:57:50.507Z,18.70
2022-10-19T10:00:19.918Z,19.07
2022-10-19T10:02:51.431Z,18.77
2022-10-19T10:05:21.178Z,18.23
2022-10-19T10:07:48.945Z,18.10
2022-10-19T10:10:23.731Z,18.70
2022-10-19T10:12:54.213Z,18.60
2022-10-19T10:15:24.926Z,18.67
2022-10-19T10:17:52.971Z,18.67
2022-10-19T10:20:27.616Z,18.53
2022-10-19T10:22:58.267Z,18.57
2022-10-19T10:25:28.289Z,18.40
2022-10-19T10:27:58.929Z,18.30
2022-10-19T10:30:28.090Z,17.93
2022-10-19T10:33:04.660Z,18.10
2022-10-19T10:35:49.025Z,18.60
2022-10-19T10:38:19.112Z,18.50
2022-10-19T10:40:51.354Z,18.70
2022-10-19T10:43:20.937Z,19.00
2022-10-19T10:45:51.205Z,18.67
2022-10-19T10:48:28.250Z,18.47
2022-10-19T10:50:57.348Z,18.20
2022-10-19T10:53:37.088Z,19.00
2022-10-19T10:56:06.193Z,18.50
2022-10-19T10:58:47.590Z,18.20
2022-10-19T11:01:20.921Z,18.97
2022-10-19T11:03:52.352Z,17.83
2022-10-19T11:09:02.780Z,18.53
2022-10-19T11:11:34.805Z,18.90
2022-10-19T11:14:16.345Z,18.50
2022-10-19T11:16:46.035Z,19.07
2022-10-19T11:19:16.647Z,18.47
2022-10-19T11:21:52.421Z,19.10
2022-10-19T11:24:23.975Z,18.60
2022-10-19T11:27:00.737Z,18.80
2022-10-19T11:29:51.805Z,18.70
2022-10-19T11:32:27.580Z,18.67
2022-10-19T11:35:07.846Z,19.10
2022-10-19T11:37:49.453Z,18.77
2022-10-19T11:40:22.358Z,19.40
2022-10-19T11:42:55.739Z,18.93
2022-10-19T11:45:29.950Z,18.80
2022-10-19T11:48:09.431Z,18.73
2022-10-19T11:50:46.619Z,18.70
2022-10-19T11:53:30.413Z,18.57
2022-10-19T11:56:02.349Z,18.87
2022-10-19T11:58:52.826Z,19.30
2022-10-19T12:01:31.558Z,19.17
2022-10-19T12:04:10.069Z,20.00
2022-10-19T12:06:40.970Z,19.47
2022-10-19T12:09:19.876Z,19.13
2022-10-19T12:11:56.713Z,19.23
2022-10-19T12:14:26.746Z,20.00
2022-10-19T12:16:57.465Z,19.20
2022-10-19T12:19:26.779Z,18.80
2022-10-19T12:21:55.275Z,18.83
2022-10-19T12:24:25.661Z,18.77
2022-10-19T12:26:54.381Z,19.03
2022-10-19T12:29:23.885Z,19.03
2022-10-19T12:31:51.818Z,19.10
2022-10-19T12:34:27.909Z,19.03
2022-10-19T12:36:58.062Z,19.63
2022-10-19T12:39:31.669Z,19.07
2022-10-19T12:42:04.402Z,18.70
2022-10-19T12:44:46.256Z,18.50
2022-10-19T12:47:17.736Z,18.80
2022-10-19T12:49:46.998Z,19.13
2022-10-19T12:52:16.514Z,18.93
2022-10-19T12:54:45.430Z,18.50
2022-10-19T12:57:26.962Z,18.57
2022-10-19T13:00:02.710Z,18.20
2022-10-19T13:05:06.313Z,18.87
2022-10-19T13:07:35.950Z,18.90
2022-10-19T13:10:06.998Z,18.53
2022-10-19T13:12:46.442Z,18.30
2022-10-19T13:15:57.029Z,18.47
2022-10-19T13:19:07.104Z,18.30
2022-10-19T13:21:54.601Z,17.90
2022-10-19T13:24:31.283Z,18.00
2022-10-19T13:27:39.285Z,18.13
2022-10-19T13:30:47.486Z,18.50
2022-10-19T13:33:43.078Z,18.90
2022-10-19T13:36:11.252Z,18.50
2022-10-19T13:38:41.379Z,20.03
2022-10-19T13:41:18.199Z,18.33
2022-10-19T13:44:02.870Z,18.17
2022-10-19T13:46:55.361Z,18.30
2022-10-19T13:49:57.703Z,18.50
2022-10-19T13:52:39.181Z,18.73
2022-10-19T13:55:35.302Z,18.63
2022-10-19T13:58:32.176Z,19.30
2022-10-19T14:01:09.738Z,19.20
2022-10-19T14:03:51.084Z,19.20
2022-10-19T14:06:28.401Z,18.80
2022-10-19T14:09:23.410Z,18.57
2022-10-19T14:11:52.847Z,18.90
2022-10-19T14:14:22.313Z,19.10
2022-10-19T14:16:58.268Z,18.77
2022-10-19T14:19:30.683Z,18.77
2022-10-19T14:22:00.698Z,18.53
2022-10-19T14:24:31.018Z,18.73
2022-10-19T14:26:58.760Z,18.63
2022-10-19T14:29:26.179Z,18.83
2022-10-19T14:31:53.897Z,18.77
2022-10-19T14:34:21.422Z,19.13
2022-10-19T14:36:50.320Z,18.80
2022-10-19T14:39:31.373Z,18.93
2022-10-19T14:42:04.288Z,18.47
2022-10-19T14:44:40.677Z,18.63
2022-10-19T14:47:17.788Z,18.60
2022-10-19T14:49:45.306Z,17.93
2022-10-19T14:52:15.599Z,18.33
2022-10-19T14:54:46.621Z,18.10
2022-10-19T14:57:16.519Z,17.87
2022-10-19T14:59:46.198Z,17.50
2022-10-19T15:02:18.788Z,18.23
2022-10-19T15:04:46.294Z,18.10
2022-10-19T15:07:19.055Z,17.73
2022-10-19T15:09:54.094Z,17.67
2022-10-19T15:12:24.878Z,17.10
2022-10-19T15:14:52.373Z,17.17
2022-10-19T15:17:26.057Z,17.30
2022-10-19T15:19:55.550Z,17.67
2022-10-19T15:22:26.837Z,17.40
2022-10-19T15:25:16.237Z,17.40
2022-10-19T15:27:47.118Z,17.27
2022-10-19T15:30:25.993Z,16.83
2022-10-19T15:32:57.669Z,16.90
2022-10-19T15:35:29.834Z,17.07
2022-10-19T15:38:01.569Z,16.73
2022-10-19T15:40:33.623Z,17.03
2022-10-19T15:43:01.266Z,17.00
2022-10-19T15:45:31.994Z,17.33
2022-10-19T15:48:20.030Z,17.17
2022-10-19T15:50:48.889Z,17.40
2022-10-19T15:53:16.463Z,17.37
2022-10-19T15:55:45.225Z,17.50
2022-10-19T15:58:13.804Z,17.27
2022-10-19T16:00:42.487Z,17.33
2022-10-19T16:03:10.071Z,18.00
2022-10-19T16:05:37.621Z,16.87
2022-10-19T16:08:08.878Z,16.83
2022-10-19T16:10:39.109Z,17.30
2022-10-19T16:13:07.814Z,17.27
2022-10-19T16:15:35.422Z,16.73
2022-10-19T16:18:02.872Z,17.50
2022-10-19T16:20:30.574Z,16.30
2022-10-19T16:22:58.557Z,16.90
2022-10-19T16:25:26.224Z,17.00
2022-10-19T16:27:53.624Z,17.17
2022-10-19T16:30:22.353Z,16.53
2022-10-19T16:32:50.142Z,16.27
2022-10-19T16:35:17.710Z,16.60
2022-10-19T16:37:45.331Z,16.53
2022-10-19T16:40:12.935Z,16.77
2022-10-19T16:42:40.373Z,16.67
2022-10-19T16:45:08.984Z,16.57
2022-10-19T16:47:37.682Z,17.23
2022-10-19T16:50:06.654Z,16.27
2022-10-19T16:52:37.670Z,17.43
2022-10-19T16:55:06.258Z,17.43
2022-10-19T16:57:33.644Z,17.20
2022-10-19T17:00:01.178Z,17.60
2022-10-19T17:02:28.594Z,17.30
2022-10-19T17:04:57.356Z,18.20
2022-10-19T17:07:25.214Z,18.40
2022-10-19T17:09:54.825Z,17.03
2022-10-19T17:12:22.546Z,17.40
2022-10-19T17:14:51.132Z,17.27
2022-10-19T17:17:18.537Z,16.80
2022-10-19T17:19:45.980Z,17.73
2022-10-19T17:22:14.985Z,16.97
2022-10-19T17:24:42.451Z,17.47
2022-10-19T17:27:09.890Z,17.40
2022-10-19T17:29:37.282Z,17.47
2022-10-19T17:32:04.918Z,17.57
2022-10-19T17:34:32.519Z,18.83
2022-10-19T17:36:59.945Z,18.00
2022-10-19T17:39:29.936Z,18.03
2022-10-19T17:42:01.142Z,18.33
2022-10-19T17:44:29.893Z,17.60
2022-10-19T17:46:57.308Z,17.43
2022-10-19T17:49:24.765Z,18.17
2022-10-19T17:51:53.099Z,17.70
2022-10-19T17:54:20.575Z,17.30
2022-10-19T17:56:49.293Z,17.50
2022-10-19T17:59:16.769Z,16.43
2022-10-19T18:01:46.153Z,17.60
2022-10-19T18:04:13.608Z,17.90
2022-10-19T18:06:41.093Z,18.17
2022-10-19T18:09:10.018Z,18.07
2022-10-19T18:11:40.595Z,18.33
2022-10-19T18:14:10.734Z,19.33
2022-10-19T18:16:40.629Z,19.60
2022-10-19T18:19:09.301Z,19.30
2022-10-19T18:21:39.633Z,19.23
2022-10-19T18:24:11.303Z,20.53
2022-10-19T18:26:41.761Z,19.60
2022-10-19T18:29:12.525Z,18.53
2022-10-19T18:31:40.977Z,19.00
2022-10-19T18:34:09.666Z,18.90
2022-10-19T18:36:37.150Z,18.47
2022-10-19T18:39:06.096Z,19.90
2022-10-19T18:41:33.533Z,20.17
2022-10-19T18:44:03.506Z,20.47
2022-10-19T18:46:33.474Z,21.00
2022-10-19T18:49:01.146Z,20.73
2022-10-19T18:51:29.056Z,20.83
2022-10-19T18:53:56.663Z,20.23
2022-10-19T18:56:25.088Z,20.20
2022-10-19T18:58:52.709Z,21.30
2022-10-19T19:01:22.744Z,19.17
2022-10-19T19:03:52.801Z,19.20
2022-10-19T19:06:22.286Z,17.43
2022-10-19T19:08:49.759Z,17.27
2022-10-19T19:11:18.389Z,17.03
2022-10-19T19:13:48.450Z,15.93
2022-10-19T19:16:15.836Z,15.63
2022-10-19T19:18:43.661Z,15.23
2022-10-19T19:21:17.257Z,15.27
2022-10-19T19:23:45.083Z,13.33
2022-10-19T19:26:13.758Z,14.63
2022-10-19T19:28:42.866Z,14.53
2022-10-19T19:31:15.842Z,14.23
2022-10-19T19:33:43.421Z,14.97
2022-10-19T19:36:13.453Z,14.50
2022-10-19T19:38:42.173Z,14.43
2022-10-19T19:41:11.988Z,13.93
2022-10-19T19:43:40.240Z,13.63
2022-10-19T19:46:09.440Z,14.03
2022-10-19T19:48:37.191Z,14.07
2022-10-19T19:51:04.838Z,13.87
2022-10-19T19:53:32.246Z,14.13
2022-10-19T19:56:00.943Z,14.53
2022-10-19T19:58:28.337Z,13.90
2022-10-19T20:00:55.709Z,13.90
2022-10-19T20:03:23.122Z,13.60
2022-10-19T20:05:50.497Z,14.50
2022-10-19T20:08:17.881Z,14.60
2022-10-19T20:10:45.305Z,14.50
2022-10-19T20:13:14.017Z,14.57
2022-10-19T20:15:41.421Z,15.20
2022-10-19T20:18:09.510Z,14.50
2022-10-19T20:20:36.877Z,14.90
2022-10-19T20:23:04.672Z,14.30
2022-10-19T20:25:32.248Z,14.60
2022-10-19T20:27:59.705Z,14.07
2022-10-19T20:30:28.427Z,14.10
2022-10-19T20:32:55.813Z,14.77
2022-10-19T20:35:23.164Z,14.17
2022-10-19T20:37:50.858Z,13.93
2022-10-19T20:40:18.853Z,14.50
2022-10-19T20:42:46.263Z,14.07
2022-10-19T20:45:13.869Z,14.00
2022-10-19T20:47:42.609Z,13.63
2022-10-19T20:50:10.471Z,13.43
2022-10-19T20:52:39.977Z,13.40
2022-10-19T20:55:07.955Z,13.70
2022-10-19T20:57:35.330Z,12.70
2022-10-19T21:00:02.779Z,13.03
2022-10-19T21:02:30.142Z,12.53
2022-10-19T21:04:58.822Z,12.70
2022-10-19T21:07:28.520Z,12.50
2022-10-19T21:09:55.921Z,12.20
2022-10-19T21:12:23.263Z,12.50
2022-10-19T21:14:50.621Z,12.27
2022-10-19T21:17:18.021Z,12.30
2022-10-19T21:19:45.387Z,12.33
2022-10-19T21:22:14.106Z,12.87
2022-10-19T21:24:41.522Z,12.57
2022-10-19T21:27:09.538Z,13.17
2022-10-19T21:29:37.573Z,12.10
2022-10-19T21:32:05.213Z,12.47
2022-10-19T21:34:32.966Z,12.77
2022-10-19T21:37:00.425Z,13.20
2022-10-19T21:39:29.085Z,12.63
2022-10-19T21:41:56.980Z,12.67
2022-10-19T21:44:24.399Z,12.63
2022-10-19T21:46:51.870Z,12.93
2022-10-19T21:49:19.687Z,13.07
2022-10-19T21:51:48.373Z,13.03
2022-10-19T21:54:17.397Z,12.83
2022-10-19T21:56:46.416Z,13.13
2022-10-19T21:59:14.076Z,12.53
2022-10-19T22:01:42.023Z,12.63
2022-10-19T22:04:12.182Z,12.67
2022-10-19T22:06:39.857Z,12.77
2022-10-19T22:09:09.359Z,12.60
2022-10-19T22:11:36.866Z,12.40
2022-10-19T22:14:05.902Z,12.50
2022-10-19T22:16:35.027Z,12.83
2022-10-19T22:19:04.188Z,12.93
2022-10-19T22:21:33.004Z,12.97
2022-10-19T22:24:02.359Z,12.83
2022-10-19T22:26:31.772Z,13.27
2022-10-19T22:29:00.360Z,12.97
2022-10-19T22:31:30.895Z,13.27
2022-10-19T22:33:58.334Z,13.30
2022-10-19T22:36:28.592Z,13.50
2022-10-19T22:38:56.007Z,13.73
2022-10-19T22:41:23.362Z,13.17
2022-10-19T22:43:50.695Z,13.43
2022-10-19T22:46:20.962Z,13.77
2022-10-19T22:48:49.641Z,13.87
2022-10-19T22:51:17.001Z,14.17
2022-10-19T22:53:44.332Z,14.43
2022-10-19T22:56:12.609Z,14.67
2022-10-19T22:58:40.039Z,14.67
2022-10-19T23:01:09.315Z,14.37
2022-10-19T23:03:37.527Z,14.83
2022-10-19T23:06:06.501Z,14.50
2022-10-19T23:08:33.981Z,14.37
2022-10-19T23:11:01.614Z,14.80
2022-10-19T23:13:28.995Z,14.70
2022-10-19T23:15:56.369Z,14.30
2022-10-19T23:18:23.982Z,15.07
2022-10-19T23:20:55.307Z,14.97
2022-10-19T23:23:24.261Z,14.93
2022-10-19T23:25:59.231Z,15.57
2022-10-19T23:28:26.926Z,15.60
2022-10-19T23:30:56.441Z,15.33
2022-10-19T23:33:23.814Z,14.80
2022-10-19T23:35:51.388Z,15.30
2022-10-19T23:38:19.225Z,15.37
2022-10-19T23:40:47.890Z,15.63
2022-10-19T23:43:15.225Z,15.60
2022-10-19T23:45:42.597Z,15.97
2022-10-19T23:48:09.946Z,15.90
2022-10-19T23:50:37.301Z,16.33
2022-10-19T23:53:04.653Z,15.70
2022-10-19T23:55:32.165Z,16.57
2022-10-19T23:58:00.893Z,17.30
